createdAt,value
2023-01-18T00:01:04.818Z,8.57
2023-01-18T00:03:34.645Z,8.50
2023-01-18T00:06:03.614Z,7.87
2023-01-18T00:08:41.150Z,9.30
2023-01-18T00:11:12.481Z,8.00
2023-01-18T00:13:41.890Z,9.07
2023-01-18T00:16:15.038Z,8.43
2023-01-18T00:18:43.181Z,9.00
2023-01-18T00:21:13.041Z,7.60
2023-01-18T00:23:41.285Z,8.53
2023-01-18T00:26:12.960Z,9.50
2023-01-18T00:28:42.027Z,9.10
2023-01-18T00:31:11.932Z,9.57
2023-01-18T00:33:40.245Z,7.97
2023-01-18T00:36:08.663Z,9.57
2023-01-18T00:38:36.812Z,8.50
2023-01-18T00:41:05.458Z,8.03
2023-01-18T00:43:40.065Z,8.37
2023-01-18T00:46:10.159Z,8.83
2023-01-18T00:48:39.740Z,8.73
2023-01-18T00:51:09.100Z,8.03
2023-01-18T00:53:38.550Z,9.50
2023-01-18T00:56:09.136Z,8.10
2023-01-18T00:58:40.480Z,8.17
2023-01-18T01:01:23.531Z,8.30
2023-01-18T01:04:08.831Z,7.40
2023-01-18T01:06:46.858Z,9.20
2023-01-18T01:09:21.377Z,8.20
2023-01-18T01:12:07.720Z,8.40
2023-01-18T01:14:57.351Z,8.30
2023-01-18T01:17:42.776Z,7.60
2023-01-18T01:20:29.836Z,7.53
2023-01-18T01:23:15.172Z,8.40
2023-01-18T01:26:01.266Z,8.20
2023-01-18T01:28:29.222Z,7.70
2023-01-18T01:31:03.267Z,7.90
2023-01-18T01:33:32.536Z,8.70
2023-01-18T01:36:05.874Z,7.63
2023-01-18T01:38:35.623Z,9.80
2023-01-18T01:41:05.889Z,8.53
2023-01-18T01:43:44.281Z,7.60
2023-01-18T01:58:24.586Z,7.37
2023-01-18T02:00:54.293Z,8.60
2023-01-18T02:03:25.477Z,8.43
2023-01-18T02:05:59.965Z,9.00
2023-01-18T02:41:58.030Z,10.03
2023-01-18T02:44:50.783Z,8.90
2023-01-18T03:48:39.234Z,9.50
2023-01-18T03:51:19.501Z,9.70
2023-01-18T03:53:56.971Z,8.97
2023-01-18T03:56:40.868Z,10.40
2023-01-18T03:59:10.005Z,8.60
2023-01-18T04:01:37.971Z,10.30
2023-01-18T04:04:07.807Z,9.53
2023-01-18T04:06:40.097Z,9.63
2023-01-18T04:09:14.706Z,8.90
2023-01-18T04:11:45.275Z,10.00
2023-01-18T04:14:21.523Z,8.40
2023-01-18T04:16:51.353Z,7.57
2023-01-18T04:19:26.308Z,6.90
2023-01-18T04:22:01.620Z,7.00
2023-01-18T04:24:32.350Z,8.73
2023-01-18T04:26:59.973Z,8.60
2023-01-18T04:29:31.673Z,7.57
2023-01-18T04:32:05.406Z,8.07
2023-01-18T04:34:38.366Z,8.00
2023-01-18T04:37:08.647Z,8.80
2023-01-18T04:39:36.614Z,8.00
2023-01-18T04:42:05.942Z,8.57
2023-01-18T04:47:21.380Z,9.67
2023-01-18T04:49:52.831Z,9.40
2023-01-18T04:52:23.881Z,9.07
2023-01-18T04:54:53.500Z,10.30
2023-01-18T04:57:23.374Z,8.43
2023-01-18T04:59:52.115Z,9.33
2023-01-18T05:02:21.317Z,9.90
2023-01-18T05:04:54.165Z,10.43
2023-01-18T05:07:30.589Z,8.90
2023-01-18T05:10:02.165Z,9.03
2023-01-18T05:12:30.693Z,9.23
2023-01-18T05:14:59.167Z,11.07
2023-01-18T05:17:27.722Z,9.40
2023-01-18T05:19:57.108Z,10.80
2023-01-18T05:22:29.982Z,11.53
2023-01-18T05:24:59.521Z,10.70
2023-01-18T05:27:30.172Z,10.90
2023-01-18T05:30:06.688Z,9.83
2023-01-18T05:32:40.068Z,10.20
2023-01-18T05:35:14.545Z,9.03
2023-01-18T05:37:44.463Z,10.77
2023-01-18T05:40:13.449Z,9.20
2023-01-18T05:42:41.253Z,10.73
2023-01-18T05:45:10.658Z,10.23
2023-01-18T05:47:46.628Z,9.90
2023-01-18T05:50:23.103Z,9.07
2023-01-18T05:52:55.119Z,12.50
2023-01-18T05:55:25.453Z,14.50
2023-01-18T05:57:55.561Z,13.97
2023-01-18T06:00:23.959Z,11.57
2023-01-18T06:02:57.587Z,12.67
2023-01-18T06:05:29.629Z,12.27
2023-01-18T06:07:59.481Z,9.67
2023-01-18T06:10:27.080Z,10.87
2023-01-18T06:13:13.934Z,11.70
2023-01-18T06:15:49.418Z,8.10
2023-01-18T06:18:18.560Z,7.50
2023-01-18T06:20:59.643Z,7.07
2023-01-18T06:23:30.412Z,8.97
2023-01-18T06:26:12.785Z,8.80
2023-01-18T06:28:47.896Z,7.13
2023-01-18T06:31:17.185Z,7.63
2023-01-18T06:33:48.661Z,6.30
2023-01-18T06:36:17.874Z,6.60
2023-01-18T06:38:45.468Z,5.73
2023-01-18T06:41:13.300Z,6.30
2023-01-18T07:10:20.865Z,6.77
2023-01-18T07:12:51.072Z,6.57
2023-01-18T07:15:22.745Z,7.07
2023-01-18T07:17:59.458Z,6.00
2023-01-18T07:20:30.472Z,5.80
2023-01-18T07:22:59.293Z,6.07
2023-01-18T07:25:29.474Z,6.27
2023-01-18T07:27:58.028Z,5.17
2023-01-18T07:30:40.040Z,6.50
2023-01-18T07:33:07.984Z,7.00
2023-01-18T07:35:35.876Z,7.10
2023-01-18T07:38:04.097Z,7.70
2023-01-18T07:40:37.582Z,5.50
2023-01-18T07:43:06.891Z,6.60
2023-01-18T07:45:36.239Z,5.37
2023-01-18T07:48:04.585Z,5.60
2023-01-18T07:50:34.988Z,5.90
2023-01-18T07:53:05.247Z,7.20
2023-01-18T07:55:35.357Z,7.47
2023-01-18T07:58:05.083Z,6.57
2023-01-18T08:00:37.164Z,9.73
2023-01-18T08:03:06.935Z,8.20
2023-01-18T08:05:35.241Z,10.30
2023-01-18T08:08:05.360Z,10.23
2023-01-18T08:10:35.508Z,9.60
2023-01-18T08:13:03.315Z,10.50
2023-01-18T08:15:31.554Z,8.80
2023-01-18T08:18:02.661Z,9.10
2023-01-18T08:20:31.396Z,9.07
2023-01-18T08:23:01.675Z,9.00
2023-01-18T08:26:13.717Z,8.90
2023-01-18T08:28:45.138Z,8.73
2023-01-18T08:31:20.266Z,8.87
2023-01-18T08:33:55.919Z,8.73
2023-01-18T08:36:26.475Z,9.47
2023-01-18T08:38:57.269Z,9.43
2023-01-18T08:41:30.596Z,8.80
2023-01-18T08:44:00.948Z,8.43
2023-01-18T08:46:44.186Z,10.60
2023-01-18T08:49:19.858Z,9.00
2023-01-18T08:59:10.662Z,9.13
2023-01-18T09:01:39.822Z,7.47
2023-01-18T09:04:09.126Z,8.13
2023-01-18T09:09:27.311Z,9.00
2023-01-18T09:11:59.229Z,8.50
2023-01-18T09:14:28.768Z,7.43
2023-01-18T09:16:57.255Z,7.97
2023-01-18T09:19:28.781Z,9.53
2023-01-18T09:21:57.576Z,7.83
2023-01-18T09:24:26.254Z,8.17
2023-01-18T09:26:54.711Z,7.33
2023-01-18T09:29:26.199Z,7.90
2023-01-18T09:31:56.467Z,7.03
2023-01-18T09:34:25.028Z,7.07
2023-01-18T09:36:56.590Z,6.70
2023-01-18T09:39:24.440Z,7.53
2023-01-18T09:41:55.635Z,7.43
2023-01-18T09:44:30.481Z,7.70
2023-01-18T09:47:07.376Z,8.30
2023-01-18T09:49:39.143Z,7.03
2023-01-18T09:52:22.695Z,8.70
2023-01-18T09:54:57.242Z,8.70
2023-01-18T09:57:40.607Z,8.13
2023-01-18T10:00:20.997Z,7.30
2023-01-18T10:02:54.691Z,7.13
2023-01-18T10:05:27.147Z,6.63
2023-01-18T10:08:03.714Z,7.10
2023-01-18T10:10:39.122Z,6.53
2023-01-18T10:13:29.141Z,6.93
2023-01-18T10:15:57.382Z,7.70
2023-01-18T10:18:28.298Z,6.80
2023-01-18T10:21:01.803Z,6.53
2023-01-18T10:23:34.883Z,6.10
2023-01-18T10:26:08.199Z,6.90
2023-01-18T10:28:49.044Z,6.90
2023-01-18T10:31:37.034Z,7.10
2023-01-18T10:34:17.997Z,7.43
2023-01-18T10:36:50.355Z,7.77
2023-01-18T10:39:30.902Z,8.90
2023-01-18T10:42:06.212Z,8.20
2023-01-18T10:44:35.840Z,7.10
2023-01-18T10:47:06.327Z,7.47
2023-01-18T10:49:37.687Z,7.00
2023-01-18T10:52:21.428Z,5.87
2023-01-18T10:54:55.993Z,5.77
2023-01-18T10:57:28.021Z,6.50
2023-01-18T10:59:57.180Z,6.60
2023-01-18T11:02:33.335Z,6.83
2023-01-18T11:05:16.945Z,6.73
2023-01-18T11:07:47.409Z,6.07
2023-01-18T11:10:26.656Z,7.60
2023-01-18T11:13:03.793Z,6.60
2023-01-18T11:16:40.752Z,5.80
2023-01-18T11:19:39.880Z,6.00
2023-01-18T11:22:21.935Z,6.80
2023-01-18T11:24:55.745Z,6.27
2023-01-18T11:31:22.640Z,6.00
2023-01-18T11:33:54.491Z,6.83
2023-01-18T11:36:38.433Z,6.83
2023-01-18T11:39:40.024Z,7.80
2023-01-18T11:42:29.459Z,6.27
2023-01-18T11:45:16.132Z,6.43
2023-01-18T11:48:03.738Z,6.77
2023-01-18T11:50:43.979Z,6.73
2023-01-18T11:53:31.794Z,6.90
2023-01-18T11:56:12.469Z,6.83
2023-01-18T11:58:44.376Z,7.43
2023-01-18T12:01:46.525Z,7.23
2023-01-18T12:04:27.636Z,7.83
2023-01-18T12:07:27.601Z,7.90
2023-01-18T12:10:06.530Z,7.43
2023-01-18T12:13:05.709Z,7.17
2023-01-18T12:16:12.015Z,7.80
2023-01-18T12:19:19.092Z,6.77
2023-01-18T12:22:06.884Z,8.17
2023-01-18T12:24:55.915Z,8.37
2023-01-18T12:27:34.948Z,6.30
2023-01-18T12:30:31.416Z,6.93
2023-01-18T12:33:15.150Z,7.30
2023-01-18T12:36:13.557Z,6.43
2023-01-18T12:38:54.875Z,7.13
2023-01-18T12:41:47.475Z,6.87
2023-01-18T12:44:45.419Z,6.90
2023-01-18T12:47:38.539Z,6.50
2023-01-18T12:50:33.899Z,5.80
2023-01-18T12:53:07.745Z,6.00
2023-01-18T12:55:46.759Z,6.70
2023-01-18T12:58:20.599Z,6.40
2023-01-18T13:01:12.882Z,6.60
2023-01-18T13:03:47.001Z,8.37
2023-01-18T13:06:20.770Z,7.60
2023-01-18T13:09:25.143Z,7.70
2023-01-18T13:12:08.036Z,6.53
2023-01-18T13:14:50.962Z,7.20
2023-01-18T13:17:31.969Z,6.73
2023-01-18T13:20:20.432Z,7.70
2023-01-18T13:23:19.709Z,5.93
2023-01-18T13:29:20.923Z,6.10
2023-01-18T13:32:03.765Z,6.37
2023-01-18T13:37:45.812Z,7.43
2023-01-18T13:40:57.456Z,7.70
2023-01-18T13:43:58.942Z,5.80
2023-01-18T13:46:30.005Z,6.50
2023-01-18T13:49:07.308Z,6.10
2023-01-18T13:51:59.919Z,5.60
2023-01-18T13:55:14.479Z,6.70
2023-01-18T13:57:56.985Z,4.60
2023-01-18T14:00:30.098Z,4.90
2023-01-18T14:03:09.088Z,5.67
2023-01-18T14:05:39.482Z,5.37
2023-01-18T14:08:12.259Z,4.53
2023-01-18T14:10:51.024Z,5.30
2023-01-18T14:14:02.172Z,6.17
2023-01-18T14:16:35.861Z,5.33
2023-01-18T14:19:17.631Z,4.63
2023-01-18T14:22:06.538Z,5.70
2023-01-18T14:24:59.449Z,5.93
2023-01-18T14:27:39.660Z,4.87
2023-01-18T14:30:22.421Z,5.40
2023-01-18T14:33:01.115Z,6.77
2023-01-18T14:35:30.081Z,5.50
2023-01-18T14:38:17.382Z,6.73
2023-01-18T14:40:52.597Z,6.00
2023-01-18T14:43:27.327Z,5.50
2023-01-18T14:46:05.430Z,5.57
2023-01-18T14:48:38.382Z,5.40
2023-01-18T14:51:07.144Z,4.80
2023-01-18T14:53:45.280Z,5.40
2023-01-18T14:56:20.851Z,4.77
2023-01-18T14:58:55.265Z,5.33
2023-01-18T15:01:34.014Z,5.00
2023-01-18T15:04:05.129Z,4.30
2023-01-18T15:06:40.413Z,4.80
2023-01-18T15:09:10.715Z,5.03
2023-01-18T15:11:40.415Z,4.57
2023-01-18T15:14:17.753Z,4.10
2023-01-18T15:16:49.909Z,4.50
2023-01-18T15:19:21.508Z,6.30
2023-01-18T15:21:49.824Z,4.03
2023-01-18T15:24:23.675Z,4.83
2023-01-18T15:26:55.485Z,6.13
2023-01-18T15:29:29.251Z,5.90
2023-01-18T15:32:00.529Z,4.07
2023-01-18T15:34:31.678Z,4.23
2023-01-18T15:37:01.984Z,5.20
2023-01-18T15:39:32.842Z,5.30
2023-01-18T15:42:06.786Z,4.97
2023-01-18T15:44:41.895Z,5.77
2023-01-18T15:47:23.785Z,6.97
2023-01-18T15:49:54.353Z,4.60
2023-01-18T15:52:45.131Z,5.50
2023-01-18T15:55:24.286Z,5.07
2023-01-18T15:58:01.102Z,5.10
2023-01-18T16:00:38.273Z,5.07
2023-01-18T16:03:27.427Z,5.07
2023-01-18T16:06:17.799Z,4.37
2023-01-18T16:09:01.097Z,5.40
2023-01-18T16:11:34.406Z,5.60
2023-01-18T16:14:07.619Z,5.00
2023-01-18T16:16:39.938Z,5.13
2023-01-18T16:19:20.979Z,6.27
2023-01-18T16:21:50.684Z,5.13
2023-01-18T16:24:27.384Z,6.00
2023-01-18T16:26:57.506Z,7.97
2023-01-18T16:29:27.428Z,5.63
2023-01-18T16:32:20.874Z,5.67
2023-01-18T16:34:54.751Z,4.27
2023-01-18T16:37:26.293Z,5.70
2023-01-18T16:39:56.692Z,4.87
2023-01-18T16:42:38.573Z,5.97
2023-01-18T16:45:19.544Z,5.70
2023-01-18T16:47:54.927Z,5.63
2023-01-18T16:50:39.295Z,6.23
2023-01-18T16:53:19.825Z,6.40
2023-01-18T16:55:51.709Z,7.03
2023-01-18T16:58:34.378Z,5.70
2023-01-18T17:05:10.058Z,4.43
2023-01-18T17:11:12.467Z,5.60
2023-01-18T17:13:41.512Z,4.70
2023-01-18T19:46:45.211Z,5.80
2023-01-18T19:49:12.817Z,7.00
2023-01-18T19:51:41.440Z,10.37
2023-01-18T19:54:14.215Z,9.70
2023-01-18T19:56:46.464Z,8.53
2023-01-18T19:59:16.760Z,8.03
2023-01-18T20:01:48.447Z,7.90
2023-01-18T20:04:21.611Z,8.10
2023-01-18T20:06:53.298Z,7.73
2023-01-18T20:09:35.130Z,6.83
2023-01-18T20:12:14.512Z,7.40
2023-01-18T20:14:45.735Z,8.10
2023-01-18T20:17:22.246Z,7.33
2023-01-18T20:19:56.865Z,6.60
2023-01-18T20:22:25.796Z,8.83
2023-01-18T20:24:57.281Z,7.97
2023-01-18T20:27:28.068Z,8.27
2023-01-18T20:29:56.508Z,8.80
2023-01-18T20:32:34.749Z,8.33
2023-01-18T20:35:07.454Z,8.80
2023-01-18T20:37:38.644Z,7.77
2023-01-18T20:40:12.516Z,7.57
2023-01-18T20:42:43.592Z,8.50
2023-01-18T20:45:13.151Z,8.87
2023-01-18T20:47:51.317Z,7.13
2023-01-18T20:50:24.027Z,7.40
2023-01-18T20:52:54.060Z,6.53
2023-01-18T20:55:37.583Z,8.30
2023-01-18T20:58:12.032Z,8.77
2023-01-18T21:00:42.929Z,9.10
2023-01-18T21:03:18.549Z,7.17
2023-01-18T21:05:48.868Z,6.17
2023-01-18T21:08:21.193Z,6.73
2023-01-18T21:10:51.096Z,8.23
2023-01-18T21:13:37.179Z,8.00
2023-01-18T21:16:15.725Z,7.67
2023-01-18T21:18:46.174Z,7.47
2023-01-18T21:21:14.247Z,8.30
2023-01-18T21:23:43.022Z,7.97
2023-01-18T21:26:14.891Z,7.57
2023-01-18T21:28:44.884Z,7.50
2023-01-18T21:31:17.793Z,7.70
2023-01-18T21:33:49.262Z,7.40
2023-01-18T21:36:20.550Z,7.70
2023-01-18T21:38:48.829Z,7.83
2023-01-18T21:41:30.999Z,6.60
2023-01-18T21:44:21.387Z,7.63
2023-01-18T21:46:54.435Z,8.30
2023-01-18T21:50:14.933Z,8.33
2023-01-18T21:55:31.614Z,7.97
2023-01-18T21:58:19.270Z,8.90
2023-01-18T22:00:52.316Z,7.30
2023-01-18T22:03:26.140Z,8.23
2023-01-18T22:05:57.743Z,9.13
2023-01-18T22:08:28.358Z,8.40
2023-01-18T22:11:00.364Z,8.53
2023-01-18T22:13:34.205Z,9.37
2023-01-18T22:18:53.803Z,7.93
2023-01-18T22:21:29.789Z,7.90
2023-01-18T22:24:00.870Z,7.80
2023-01-18T22:26:43.113Z,7.87
2023-01-18T22:29:12.345Z,7.80
2023-01-18T22:31:42.051Z,8.53
2023-01-18T22:34:19.155Z,8.30
2023-01-18T22:36:52.236Z,7.43
2023-01-18T22:39:34.735Z,8.70
2023-01-18T22:42:06.341Z,7.13
2023-01-18T22:44:39.233Z,7.57
2023-01-18T22:47:13.228Z,8.50
2023-01-18T22:49:58.472Z,8.73
2023-01-18T22:52:32.140Z,8.40
2023-01-18T22:55:01.222Z,8.77
2023-01-18T22:57:30.080Z,8.83
2023-01-18T23:00:01.446Z,8.77
2023-01-18T23:02:32.661Z,9.53
2023-01-18T23:05:06.302Z,7.93
2023-01-18T23:07:40.001Z,8.93
2023-01-18T23:10:15.070Z,9.83
2023-01-18T23:12:44.162Z,7.87
2023-01-18T23:15:31.023Z,8.30
2023-01-18T23:18:01.215Z,8.30
2023-01-18T23:20:32.541Z,8.27
2023-01-18T23:23:10.117Z,8.80
2023-01-18T23:25:41.532Z,8.80
2023-01-18T23:28:14.745Z,8.67
2023-01-18T23:30:43.322Z,8.47
2023-01-18T23:33:18.899Z,9.17
2023-01-18T23:35:52.032Z,7.50
2023-01-18T23:38:21.831Z,8.80
2023-01-18T23:41:08.238Z,8.87
2023-01-18T23:44:01.684Z,7.83
2023-01-18T23:46:49.224Z,7.87
2023-01-18T23:49:36.593Z,8.60
2023-01-18T23:52:23.587Z,8.23
2023-01-18T23:54:58.673Z,8.77
